Aérodrome :
LOGIN :

S'inscrire | Disclaimer

   EN    FR    IT 

 










Légende :    VFR   VFR Marginal   IFR   IFR Intensif   IFR Très Intensif
Visi : 
Plafond : 
>= 8 km
>= 3000ft
5 à 8 km
1000 à 3000 ft
1500m à 5 km
500 à 1000 ft
800 à 1500m
200 à 500 ft
< 800m
< 200 ft
Symboles :   Orages  Brouillard  Fortes neiges  Fortes précipitations  Vent > 20 kt
SIGMETs :   Divers  Orages  Givrage  Turbulence  Onde Orograph.  Cendres Volcan.






- Altitude de l'aérodrome : 545 ft
- Code IATA : PZY


LZPP - Piešťany

DERNIER METAR :
  • 180100Z AUTO VRB02KT 9999 NCD 08/07 Q1016

METARs EXPIRÉS :
  • 180030Z AUTO VRB02KT 9999 BKN023/// 10/09 Q1016
  • 180000Z AUTO 36003KT 330V040 9999 NCD 09/07 Q1017
  • 172330Z AUTO VRB01KT 9999 SCT028/// SCT035/// 10/09 Q1017
  • 172300Z AUTO 06003KT 030V110 9999 SCT035/// BKN049/// 11/09 Q1017
  • 172230Z AUTO 34005KT 9999 BKN039/// OVC049/// 10/09 Q1017

TAF TAF LZPP
Valide du 17 à 18h jusqu'au 18 à 03h UTC


171700Z 1718/1803 14004KT CAVOK



MET'MAP, la Météo Aéronautique d'un coup d'oeil ! - Copyright ORBIFLY Décembre 2007 - Disclaimer

ORBIFLY MET'MAP TEAM :

Programmation & Développement : Alexandra Zaïnal
Conception & Développement : Baudouin d'Aumeries
Co-Programmation & Développement : Marc-Olivier Méhu
Soutien technique & logistique : Manuel Goepfert

Contact : metmap@orbifly.com




SOURCES & CREDITS :

   NOAA